Time;durP1;ratioP1;P1;durP2;ratioP2;P2;SDS_P1;SDS_P2;PMS_P1;PMS_P2;Temp;Humidity;BMP_temperature;BMP_pressure;BME280_temperature;BME280_humidity;BME280_pressure;Samples;Min_cycle;Max_cycle;Signal;HPM_P1;HPM_P2
2024/01/13 00:01:06;;;;;;;;;;;3.60;99.90;;;;;;5067582;28;19964;-79
2024/01/13 00:03:32;;;;;;;;;;;3.70;99.90;;;;;;5068121;28;19923;-77
2024/01/13 00:05:57;;;;;;;;;;;3.60;99.90;;;;;;5041103;28;19946;-77
2024/01/13 00:08:23;;;;;;;;;;;3.60;99.90;;;;;;5041021;28;19916;-77
2024/01/13 00:10:48;;;;;;;;;;;3.60;99.90;;;;;;5053965;28;19920;-77
2024/01/13 00:13:15;;;;;;;;;;;3.60;99.90;;;;;;5052748;28;19920;-77
2024/01/13 00:15:40;;;;;;;;;;;3.60;99.90;;;;;;5044633;28;19981;-77
2024/01/13 00:18:06;;;;;;;;;;;3.60;99.90;;;;;;5062859;28;19920;-77
2024/01/13 00:20:32;;;;;;;;;;;3.60;99.90;;;;;;5069002;28;19921;-77
2024/01/13 00:22:57;;;;;;;;;;;3.60;99.90;;;;;;5064180;28;20413;-77
2024/01/13 00:25:23;;;;;;;;;;;3.60;99.90;;;;;;5052858;28;19920;-78
2024/01/13 00:27:48;;;;;;;;;;;3.60;99.90;;;;;;5036667;28;19917;-78
2024/01/13 00:30:15;;;;;;;;;;;3.60;99.90;;;;;;5036149;28;19921;-78
2024/01/13 00:32:40;;;;;;;;;;;3.60;99.90;;;;;;5051327;28;19925;-78
2024/01/13 00:35:06;;;;;;;;;;;3.60;99.90;;;;;;5046574;28;19932;-78
2024/01/13 00:37:31;;;;;;;;;;;3.60;99.90;;;;;;5035981;28;19921;-77
2024/01/13 00:39:57;;;;;;;;;;;3.60;99.90;;;;;;5043676;28;19920;-78
2024/01/13 00:42:22;;;;;;;;;;;3.60;99.90;;;;;;5054483;28;19921;-78
2024/01/13 00:44:48;;;;;;;;;;;3.60;99.90;;;;;;5039513;28;19921;-77
2024/01/13 00:47:13;;;;;;;;;;;3.60;99.90;;;;;;5039463;28;19932;-78
2024/01/13 00:49:39;;;;;;;;;;;3.60;99.90;;;;;;5054476;28;20403;-77
2024/01/13 00:52:05;;;;;;;;;;;3.60;99.90;;;;;;5054463;28;20338;-77
2024/01/13 00:54:30;;;;;;;;;;;3.60;99.90;;;;;;5059562;28;20288;-77
2024/01/13 00:56:56;;;;;;;;;;;3.60;99.90;;;;;;5034512;28;19921;-77
2024/01/13 00:59:21;;;;;;;;;;;3.60;99.90;;;;;;5046767;28;20012;-77
2024/01/13 01:01:47;;;;;;;;;;;3.60;99.90;;;;;;5058892;28;19963;-77
2024/01/13 01:04:12;;;;;;;;;;;3.60;99.90;;;;;;5053487;28;19927;-77
2024/01/13 01:06:38;;;;;;;;;;;3.60;99.90;;;;;;5055046;28;19963;-77
2024/01/13 01:09:06;;;;;;;;;;;3.70;99.90;;;;;;5052561;28;19963;-77
2024/01/13 01:11:31;;;;;;;;;;;3.70;99.90;;;;;;5072466;28;19921;-77
2024/01/13 01:13:57;;;;;;;;;;;3.60;99.90;;;;;;5044371;28;20461;-77
2024/01/13 01:16:22;;;;;;;;;;;4.30;99.90;;;;;;5051424;28;20332;-78
2024/01/13 01:18:48;;;;;;;;;;;3.70;99.90;;;;;;5069657;28;20078;-77
2024/01/13 01:21:14;;;;;;;;;;;3.60;99.90;;;;;;5048336;28;19952;-77
2024/01/13 01:23:40;;;;;;;;;;;3.70;99.90;;;;;;5043031;28;20041;-77
2024/01/13 01:26:05;;;;;;;;;;;5.20;99.90;;;;;;5052807;28;20019;-78
2024/01/13 01:28:31;;;;;;;;;;;3.70;99.90;;;;;;5051964;28;19920;-78
2024/01/13 01:30:56;;;;;;;;;;;3.70;99.90;;;;;;5052880;28;19924;-77
2024/01/13 01:33:22;;;;;;;;;;;3.60;99.90;;;;;;5053068;28;19921;-77
2024/01/13 01:35:47;;;;;;;;;;;3.70;99.90;;;;;;5051858;28;19949;-78
2024/01/13 01:38:13;;;;;;;;;;;3.60;99.90;;;;;;5051328;28;19970;-77
2024/01/13 01:40:39;;;;;;;;;;;3.60;99.90;;;;;;5056211;28;19921;-78
2024/01/13 01:43:04;;;;;;;;;;;3.60;99.90;;;;;;5048734;28;19951;-77
2024/01/13 01:45:30;;;;;;;;;;;3.60;99.90;;;;;;5034972;28;19924;-77
2024/01/13 01:47:57;;;;;;;;;;;3.60;99.90;;;;;;5052351;28;19931;-77
2024/01/13 01:50:22;;;;;;;;;;;3.60;99.90;;;;;;5052960;28;19927;-77
2024/01/13 01:52:48;;;;;;;;;;;3.60;99.90;;;;;;5052188;28;20010;-78
2024/01/13 01:55:13;;;;;;;;;;;3.50;99.90;;;;;;5070162;28;20243;-78
2024/01/13 01:57:39;;;;;;;;;;;3.50;99.90;;;;;;5050924;28;19943;-77
2024/01/13 02:00:09;;;;;;;;;;;3.50;99.90;;;;;;5051749;28;19947;-79
2024/01/13 02:02:35;;;;;;;;;;;3.50;99.90;;;;;;5052018;28;19967;-76
2024/01/13 02:05:02;;;;;;;;;;;3.50;99.90;;;;;;5051949;28;19982;-76
2024/01/13 02:07:27;;;;;;;;;;;3.50;99.90;;;;;;5070521;28;19927;-77
2024/01/13 02:09:53;;;;;;;;;;;3.50;99.90;;;;;;5052385;28;20280;-77
2024/01/13 02:12:19;;;;;;;;;;;3.50;99.90;;;;;;5047315;28;19928;-77
2024/01/13 02:14:44;;;;;;;;;;;3.50;99.90;;;;;;5033723;28;19925;-77
2024/01/13 02:17:10;;;;;;;;;;;3.50;99.90;;;;;;5031836;28;19944;-77
2024/01/13 02:19:36;;;;;;;;;;;3.60;99.90;;;;;;5046696;28;20423;-78
2024/01/13 02:22:01;;;;;;;;;;;3.60;99.90;;;;;;5048243;28;19920;-77
2024/01/13 02:24:27;;;;;;;;;;;3.50;99.90;;;;;;5034744;28;19981;-77
2024/01/13 02:26:52;;;;;;;;;;;3.60;99.90;;;;;;5033866;28;20432;-77
2024/01/13 02:29:18;;;;;;;;;;;3.50;99.90;;;;;;5044867;28;20401;-77
2024/01/13 02:31:43;;;;;;;;;;;3.50;99.90;;;;;;5037167;28;20419;-77
2024/01/13 02:34:09;;;;;;;;;;;3.50;99.90;;;;;;5040559;28;20015;-77
2024/01/13 02:36:35;;;;;;;;;;;3.50;99.90;;;;;;5051504;28;19971;-77
2024/01/13 02:39:00;;;;;;;;;;;3.50;99.90;;;;;;5048870;28;19931;-77
2024/01/13 02:41:26;;;;;;;;;;;3.50;99.90;;;;;;5032934;28;19925;-78
2024/01/13 02:43:52;;;;;;;;;;;3.50;99.90;;;;;;5031524;28;19921;-77
2024/01/13 02:46:17;;;;;;;;;;;3.50;99.90;;;;;;5049756;28;19927;-77
2024/01/13 02:48:44;;;;;;;;;;;3.50;99.90;;;;;;5032333;28;20492;-77
2024/01/13 02:51:14;;;;;;;;;;;3.50;99.90;;;;;;5041869;28;19932;-78
2024/01/13 02:53:40;;;;;;;;;;;3.50;99.90;;;;;;5069707;28;19920;-78
2024/01/13 02:56:05;;;;;;;;;;;3.50;99.90;;;;;;5069232;28;19916;-78
2024/01/13 02:58:31;;;;;;;;;;;3.50;99.90;;;;;;5050524;28;19928;-78
2024/01/13 03:00:56;;;;;;;;;;;3.50;99.90;;;;;;5050047;28;20018;-78
2024/01/13 03:03:22;;;;;;;;;;;3.50;99.90;;;;;;5052108;28;20430;-78
2024/01/13 03:05:47;;;;;;;;;;;3.50;99.90;;;;;;5038109;28;19927;-78
2024/01/13 03:08:13;;;;;;;;;;;3.50;99.90;;;;;;5031605;28;20378;-78
2024/01/13 03:10:38;;;;;;;;;;;3.50;99.90;;;;;;5068618;28;19961;-78
2024/01/13 03:13:04;;;;;;;;;;;3.60;99.90;;;;;;5051042;28;20516;-77
2024/01/13 03:15:29;;;;;;;;;;;3.50;99.90;;;;;;5038645;28;20387;-78
2024/01/13 03:17:55;;;;;;;;;;;3.50;99.90;;;;;;5033092;28;20423;-77
2024/01/13 03:20:21;;;;;;;;;;;3.50;99.90;;;;;;5047467;28;20330;-77
2024/01/13 03:22:46;;;;;;;;;;;3.50;99.90;;;;;;5068879;28;19950;-78
2024/01/13 03:25:12;;;;;;;;;;;3.60;99.90;;;;;;5044451;28;19927;-77
2024/01/13 03:27:37;;;;;;;;;;;3.50;99.90;;;;;;5033274;28;19925;-80
2024/01/13 03:30:03;;;;;;;;;;;3.50;99.90;;;;;;5037192;28;19947;-77
2024/01/13 03:32:29;;;;;;;;;;;3.50;99.90;;;;;;5031746;28;19920;-77
2024/01/13 03:34:54;;;;;;;;;;;3.50;99.90;;;;;;5045675;28;20163;-78
2024/01/13 03:37:20;;;;;;;;;;;3.50;99.90;;;;;;5052140;28;20023;-77
2024/01/13 03:39:45;;;;;;;;;;;3.50;99.90;;;;;;5042397;28;20015;-77
2024/01/13 03:42:11;;;;;;;;;;;3.50;99.90;;;;;;5045032;28;19924;-77
2024/01/13 03:44:36;;;;;;;;;;;3.50;99.90;;;;;;5050374;28;20315;-77
2024/01/13 03:47:02;;;;;;;;;;;3.20;99.90;;;;;;5050730;28;19920;-77
2024/01/13 03:49:27;;;;;;;;;;;3.80;99.90;;;;;;5050774;28;20411;-77
2024/01/13 03:51:53;;;;;;;;;;;3.50;99.90;;;;;;5049927;28;20334;-78
2024/01/13 03:54:18;;;;;;;;;;;3.50;99.90;;;;;;5051490;28;19920;-77
2024/01/13 03:56:44;;;;;;;;;;;3.50;99.90;;;;;;5069027;28;20295;-77
2024/01/13 03:59:12;;;;;;;;;;;3.50;99.90;;;;;;5049839;28;19932;-76
2024/01/13 04:01:38;;;;;;;;;;;3.50;99.90;;;;;;5051080;28;19921;-77
2024/01/13 04:04:03;;;;;;;;;;;3.50;99.90;;;;;;5046919;28;19931;-77
2024/01/13 04:06:29;;;;;;;;;;;3.50;99.90;;;;;;5063332;28;20007;-77
2024/01/13 04:08:54;;;;;;;;;;;3.50;99.90;;;;;;5050310;28;20257;-79
2024/01/13 04:11:20;;;;;;;;;;;3.50;99.90;;;;;;5050073;28;19920;-77
2024/01/13 04:13:45;;;;;;;;;;;3.70;99.90;;;;;;5060608;28;19927;-77
2024/01/13 04:16:12;;;;;;;;;;;3.50;99.90;;;;;;5032814;28;19921;-77
2024/01/13 04:18:38;;;;;;;;;;;3.50;99.90;;;;;;5044356;28;19975;-78
2024/01/13 04:21:04;;;;;;;;;;;3.50;99.90;;;;;;5049549;28;20289;-77
2024/01/13 04:23:29;;;;;;;;;;;3.50;99.90;;;;;;5051160;28;19960;-77
2024/01/13 04:25:55;;;;;;;;;;;3.50;99.90;;;;;;5034073;28;19935;-77
2024/01/13 04:28:20;;;;;;;;;;;3.50;99.90;;;;;;5050305;28;20015;-78
2024/01/13 04:30:46;;;;;;;;;;;3.50;99.90;;;;;;5050432;28;20019;-78
2024/01/13 04:33:11;;;;;;;;;;;3.50;99.90;;;;;;5049953;28;19943;-78
2024/01/13 04:35:37;;;;;;;;;;;3.50;99.90;;;;;;5049846;28;20351;-78
2024/01/13 04:38:02;;;;;;;;;;;3.50;99.90;;;;;;5067460;28;20379;-78
2024/01/13 04:40:29;;;;;;;;;;;3.50;99.90;;;;;;5054793;28;19999;-77
2024/01/13 04:42:55;;;;;;;;;;;3.50;99.90;;;;;;5042681;28;20364;-78
2024/01/13 04:45:21;;;;;;;;;;;3.50;99.90;;;;;;5050507;28;19927;-78
2024/01/13 04:47:46;;;;;;;;;;;3.50;99.90;;;;;;5050254;28;20058;-78
2024/01/13 04:50:12;;;;;;;;;;;3.50;99.90;;;;;;5058965;28;19927;-77
2024/01/13 04:52:37;;;;;;;;;;;3.50;99.90;;;;;;5067539;28;20423;-78
2024/01/13 04:55:03;;;;;;;;;;;3.60;99.90;;;;;;5051805;28;19931;-77
2024/01/13 04:57:29;;;;;;;;;;;3.60;99.90;;;;;;5071915;28;19920;-77
2024/01/13 04:59:54;;;;;;;;;;;3.60;99.90;;;;;;5051597;28;19931;-77
2024/01/13 05:02:20;;;;;;;;;;;3.60;99.90;;;;;;5042902;28;19921;-77
2024/01/13 05:04:45;;;;;;;;;;;3.60;99.90;;;;;;5034536;28;19955;-78
2024/01/13 05:07:11;;;;;;;;;;;3.60;99.90;;;;;;5033740;28;20038;-78
2024/01/13 05:09:37;;;;;;;;;;;3.60;99.90;;;;;;5065214;28;19981;-78
2024/01/13 05:12:02;;;;;;;;;;;3.60;99.90;;;;;;5052713;28;20392;-78
2024/01/13 05:14:28;;;;;;;;;;;3.60;99.90;;;;;;5065503;28;19928;-78
2024/01/13 05:16:53;;;;;;;;;;;3.60;99.90;;;;;;5071366;28;19920;-78
2024/01/13 05:19:20;;;;;;;;;;;3.80;99.90;;;;;;5054260;28;19928;-78
2024/01/13 05:21:45;;;;;;;;;;;3.60;99.90;;;;;;5053175;28;19943;-77
2024/01/13 05:24:12;;;;;;;;;;;3.60;99.90;;;;;;5057027;28;20349;-77
2024/01/13 05:26:38;;;;;;;;;;;3.60;99.90;;;;;;5035851;28;20346;-78
2024/01/13 05:29:03;;;;;;;;;;;3.50;99.90;;;;;;5047287;28;20003;-78
2024/01/13 05:31:29;;;;;;;;;;;3.60;99.90;;;;;;5073192;28;19920;-78
2024/01/13 05:33:55;;;;;;;;;;;3.50;99.90;;;;;;5052877;28;19928;-78
2024/01/13 05:36:21;;;;;;;;;;;3.60;99.90;;;;;;5033155;28;19928;-78
2024/01/13 05:38:47;;;;;;;;;;;3.60;99.90;;;;;;5069992;28;19920;-78
2024/01/13 05:41:12;;;;;;;;;;;3.50;99.90;;;;;;5040235;28;19943;-78
2024/01/13 05:43:38;;;;;;;;;;;3.50;99.90;;;;;;5048179;28;20364;-78
2024/01/13 05:46:03;;;;;;;;;;;3.60;99.90;;;;;;5052379;28;19931;-78
2024/01/13 05:48:29;;;;;;;;;;;3.60;99.90;;;;;;5069425;28;20458;-79
2024/01/13 05:50:54;;;;;;;;;;;3.60;99.90;;;;;;5052663;28;20334;-79
2024/01/13 05:53:20;;;;;;;;;;;3.60;99.90;;;;;;5045969;28;19928;-78
2024/01/13 05:55:45;;;;;;;;;;;3.60;99.90;;;;;;5048098;28;19928;-78
2024/01/13 05:58:11;;;;;;;;;;;3.60;99.90;;;;;;5049977;28;19967;-78
2024/01/13 06:00:36;;;;;;;;;;;3.60;99.90;;;;;;5047637;28;19967;-78
2024/01/13 06:03:02;;;;;;;;;;;3.60;99.90;;;;;;5031804;28;19982;-78
2024/01/13 06:05:28;;;;;;;;;;;3.60;99.90;;;;;;5040960;28;19928;-79
2024/01/13 06:07:54;;;;;;;;;;;3.60;99.90;;;;;;5052319;28;19979;-78
2024/01/13 06:10:19;;;;;;;;;;;3.60;99.90;;;;;;5052320;28;20023;-78
2024/01/13 06:12:48;;;;;;;;;;;3.90;99.90;;;;;;5047706;28;20463;-78
2024/01/13 06:15:14;;;;;;;;;;;4.10;99.90;;;;;;5041791;28;19924;-79
2024/01/13 06:17:39;;;;;;;;;;;3.60;99.90;;;;;;5051409;28;19966;-78
2024/01/13 06:20:05;;;;;;;;;;;3.60;99.90;;;;;;5052357;28;20268;-78
2024/01/13 06:22:30;;;;;;;;;;;3.60;99.90;;;;;;5051763;28;20352;-79
2024/01/13 06:24:56;;;;;;;;;;;3.60;99.90;;;;;;5043198;28;20394;-78
2024/01/13 06:27:21;;;;;;;;;;;3.50;99.90;;;;;;5043370;28;20003;-79
2024/01/13 06:29:47;;;;;;;;;;;3.50;99.90;;;;;;5041825;28;19934;-79
2024/01/13 06:32:12;;;;;;;;;;;3.50;99.90;;;;;;5045254;28;19950;-79
2024/01/13 06:34:38;;;;;;;;;;;3.60;99.90;;;;;;5043299;28;20087;-79
2024/01/13 06:37:04;;;;;;;;;;;3.80;99.90;;;;;;5046489;28;20592;-78
2024/01/13 06:39:30;;;;;;;;;;;3.50;99.90;;;;;;5033973;28;19932;-79
2024/01/13 06:41:55;;;;;;;;;;;3.60;99.90;;;;;;5032269;28;19920;-78
2024/01/13 06:44:21;;;;;;;;;;;3.60;99.90;;;;;;5058228;28;19927;-79
2024/01/13 06:46:47;;;;;;;;;;;3.60;99.90;;;;;;5067057;28;19943;-78
2024/01/13 06:49:12;;;;;;;;;;;3.60;99.90;;;;;;5051418;28;19978;-78
2024/01/13 06:51:37;;;;;;;;;;;3.60;99.90;;;;;;5050904;28;19920;-78
2024/01/13 06:54:03;;;;;;;;;;;3.60;99.90;;;;;;5051575;28;19928;-79
2024/01/13 06:56:29;;;;;;;;;;;3.60;99.90;;;;;;5051806;28;20368;-78
2024/01/13 06:58:54;;;;;;;;;;;3.60;99.90;;;;;;5038896;28;20011;-77
2024/01/13 07:01:20;;;;;;;;;;;3.60;99.90;;;;;;5048264;28;19946;-77
2024/01/13 07:03:46;;;;;;;;;;;3.70;99.90;;;;;;5032198;28;20363;-77
2024/01/13 07:06:12;;;;;;;;;;;3.60;99.90;;;;;;5031423;28;19925;-78
2024/01/13 07:08:38;;;;;;;;;;;3.60;99.90;;;;;;5069499;28;20015;-78
2024/01/13 07:11:11;;;;;;;;;;;4.40;99.90;;;;;;5051745;28;19946;-78
2024/01/13 07:13:36;;;;;;;;;;;4.00;99.90;;;;;;5050794;28;19921;-78
2024/01/13 07:16:02;;;;;;;;;;;3.70;99.90;;;;;;5033896;28;19928;-78
2024/01/13 07:18:27;;;;;;;;;;;3.70;99.90;;;;;;5033997;28;19943;-78
2024/01/13 07:20:55;;;;;;;;;;;3.70;99.90;;;;;;5038221;28;19920;-78
2024/01/13 07:23:20;;;;;;;;;;;3.70;99.90;;;;;;5035688;28;20299;-77
2024/01/13 07:25:46;;;;;;;;;;;3.70;99.90;;;;;;5034457;28;20033;-77
2024/01/13 07:28:11;;;;;;;;;;;3.70;99.90;;;;;;5037144;28;19982;-77
2024/01/13 07:30:37;;;;;;;;;;;3.70;99.90;;;;;;5068386;28;20288;-79
2024/01/13 07:33:02;;;;;;;;;;;3.70;99.90;;;;;;5047165;28;19955;-77
2024/01/13 07:35:28;;;;;;;;;;;3.70;99.90;;;;;;5031453;28;19927;-78
2024/01/13 07:37:53;;;;;;;;;;;3.70;99.90;;;;;;5014905;28;19916;-78
2024/01/13 07:40:19;;;;;;;;;;;3.70;99.90;;;;;;5033780;28;20418;-78
2024/01/13 07:42:45;;;;;;;;;;;3.70;99.90;;;;;;5047885;28;19928;-77
2024/01/13 07:45:10;;;;;;;;;;;3.70;99.90;;;;;;5034299;28;19923;-79
2024/01/13 07:47:36;;;;;;;;;;;3.70;99.90;;;;;;5051316;28;20133;-78
2024/01/13 07:50:03;;;;;;;;;;;3.70;99.90;;;;;;5035804;28;19946;-78
2024/01/13 07:52:29;;;;;;;;;;;3.70;99.90;;;;;;5034038;28;19927;-79
2024/01/13 07:54:55;;;;;;;;;;;3.80;99.90;;;;;;5030181;28;19921;-78
2024/01/13 07:57:20;;;;;;;;;;;3.70;99.90;;;;;;5050139;28;19916;-78
2024/01/13 07:59:46;;;;;;;;;;;3.80;99.90;;;;;;5030267;28;19920;-78
2024/01/13 08:02:11;;;;;;;;;;;3.70;99.90;;;;;;5049132;28;19970;-78
2024/01/13 08:04:37;;;;;;;;;;;3.70;99.90;;;;;;5039824;28;19920;-79
2024/01/13 08:07:02;;;;;;;;;;;3.70;99.90;;;;;;5042149;28;19924;-79
2024/01/13 08:09:28;;;;;;;;;;;3.70;99.90;;;;;;5062253;28;19916;-77
2024/01/13 08:11:53;;;;;;;;;;;3.70;99.90;;;;;;5052721;28;19920;-78
2024/01/13 08:14:19;;;;;;;;;;;3.70;99.90;;;;;;5047668;28;20384;-79
2024/01/13 08:16:45;;;;;;;;;;;3.70;99.90;;;;;;5049493;28;19927;-78
2024/01/13 08:19:10;;;;;;;;;;;3.70;99.90;;;;;;5050894;28;19924;-78
2024/01/13 08:21:36;;;;;;;;;;;3.70;99.90;;;;;;5045660;28;19920;-78
2024/01/13 08:24:01;;;;;;;;;;;3.80;99.90;;;;;;5060694;28;19924;-78
2024/01/13 08:26:29;;;;;;;;;;;3.70;99.90;;;;;;5054109;28;19920;-77
2024/01/13 08:28:55;;;;;;;;;;;3.70;99.90;;;;;;5066885;28;19927;-78
2024/01/13 08:31:20;;;;;;;;;;;3.70;99.90;;;;;;5050850;28;19924;-78
2024/01/13 08:33:46;;;;;;;;;;;3.70;99.90;;;;;;5052192;28;19932;-78
2024/01/13 08:36:12;;;;;;;;;;;3.70;99.90;;;;;;5053478;28;19916;-79
2024/01/13 08:38:37;;;;;;;;;;;3.70;99.90;;;;;;5049610;28;19971;-78
2024/01/13 08:41:03;;;;;;;;;;;3.70;99.90;;;;;;5039133;28;20335;-79
2024/01/13 08:43:28;;;;;;;;;;;3.70;99.90;;;;;;5052600;28;20358;-78
2024/01/13 08:45:54;;;;;;;;;;;3.70;99.90;;;;;;5048298;28;19928;-78
2024/01/13 08:48:19;;;;;;;;;;;3.80;99.90;;;;;;5052185;28;19916;-78
2024/01/13 08:50:45;;;;;;;;;;;4.90;99.90;;;;;;5061786;28;19920;-78
2024/01/13 08:53:10;;;;;;;;;;;3.70;99.90;;;;;;5064574;28;20296;-78
2024/01/13 08:55:36;;;;;;;;;;;3.80;99.90;;;;;;5039596;28;19967;-79
2024/01/13 08:58:01;;;;;;;;;;;3.80;99.90;;;;;;5042466;28;19925;-79
2024/01/13 09:00:28;;;;;;;;;;;3.80;99.90;;;;;;5037656;28;20003;-78
2024/01/13 09:02:54;;;;;;;;;;;3.80;99.90;;;;;;5035263;28;20019;-80
2024/01/13 09:05:19;;;;;;;;;;;3.80;99.90;;;;;;5027731;28;19928;-78
2024/01/13 09:07:45;;;;;;;;;;;3.80;99.90;;;;;;5040123;28;19932;-79
2024/01/13 09:10:10;;;;;;;;;;;3.90;99.90;;;;;;5034852;28;19929;-79
2024/01/13 09:12:37;;;;;;;;;;;3.80;99.90;;;;;;5047879;28;19921;-79
2024/01/13 09:15:06;;;;;;;;;;;3.90;99.90;;;;;;5049909;28;19924;-79
2024/01/13 09:17:32;;;;;;;;;;;3.80;99.90;;;;;;5043803;28;20787;-78
2024/01/13 09:19:57;;;;;;;;;;;3.90;99.90;;;;;;5051848;28;19970;-78
2024/01/13 09:22:23;;;;;;;;;;;3.90;99.90;;;;;;5052803;28;20001;-79
2024/01/13 09:24:48;;;;;;;;;;;3.90;99.90;;;;;;5051206;28;19920;-77
2024/01/13 09:27:17;;;;;;;;;;;3.90;99.90;;;;;;5040803;28;19927;-77
2024/01/13 09:29:44;;;;;;;;;;;3.90;99.90;;;;;;5056433;28;19928;-78
2024/01/13 09:32:10;;;;;;;;;;;3.90;99.90;;;;;;5042497;28;20014;-78
2024/01/13 09:34:35;;;;;;;;;;;3.90;99.90;;;;;;5066578;28;19967;-78
2024/01/13 09:37:01;;;;;;;;;;;4.10;99.90;;;;;;5050934;28;20139;-75
2024/01/13 09:39:26;;;;;;;;;;;3.90;99.90;;;;;;5052660;28;20011;-77
2024/01/13 09:41:53;;;;;;;;;;;4.00;99.90;;;;;;5051366;28;20387;-77
2024/01/13 09:44:21;;;;;;;;;;;3.90;99.90;;;;;;5051284;28;20001;-78
2024/01/13 09:46:49;;;;;;;;;;;3.90;99.90;;;;;;5053093;28;19920;-78
2024/01/13 09:49:16;;;;;;;;;;;4.00;99.90;;;;;;5070094;28;20283;-77
2024/01/13 09:51:42;;;;;;;;;;;3.90;99.90;;;;;;5053848;28;19942;-77
2024/01/13 09:54:16;;;;;;;;;;;3.90;99.90;;;;;;5046902;28;19924;-78
2024/01/13 09:56:45;;;;;;;;;;;4.00;99.90;;;;;;5070109;28;19916;-77
2024/01/13 09:59:11;;;;;;;;;;;4.00;99.90;;;;;;5037632;28;20018;-77
2024/01/13 10:01:38;;;;;;;;;;;3.90;99.90;;;;;;5050975;28;19963;-78
2024/01/13 10:04:04;;;;;;;;;;;5.40;99.90;;;;;;5052073;28;19963;-78
2024/01/13 10:06:34;;;;;;;;;;;4.50;99.90;;;;;;5053094;28;20265;-77
2024/01/13 10:09:00;;;;;;;;;;;4.00;99.90;;;;;;5029177;28;19924;-78
2024/01/13 10:11:25;;;;;;;;;;;4.00;99.90;;;;;;5038598;28;19921;-78
2024/01/13 10:14:00;;;;;;;;;;;4.00;99.90;;;;;;5051758;28;19921;-78
2024/01/13 10:16:29;;;;;;;;;;;4.10;99.90;;;;;;5050363;28;19943;-79
2024/01/13 10:18:57;;;;;;;;;;;4.10;99.90;;;;;;5048576;28;20023;-78
2024/01/13 10:21:23;;;;;;;;;;;4.10;99.90;;;;;;5043491;28;20302;-76
2024/01/13 10:23:49;;;;;;;;;;;4.10;99.90;;;;;;5049085;28;19924;-78
2024/01/13 10:26:15;;;;;;;;;;;4.70;99.90;;;;;;5046200;28;19924;-77
2024/01/13 10:28:40;;;;;;;;;;;4.20;99.90;;;;;;5035391;28;20260;-78
2024/01/13 10:31:06;;;;;;;;;;;4.20;99.90;;;;;;5048247;28;19927;-78
2024/01/13 10:33:31;;;;;;;;;;;4.30;99.90;;;;;;5047610;28;19921;-77
2024/01/13 10:35:57;;;;;;;;;;;4.30;99.90;;;;;;5045293;28;20360;-77
2024/01/13 10:38:22;;;;;;;;;;;4.30;99.90;;;;;;5043943;28;20354;-80
2024/01/13 10:40:48;;;;;;;;;;;4.30;99.90;;;;;;5043384;28;20011;-76
2024/01/13 10:43:15;;;;;;;;;;;4.30;99.90;;;;;;5062946;28;19927;-77
2024/01/13 10:45:43;;;;;;;;;;;4.50;99.90;;;;;;5065915;28;19920;-77
2024/01/13 10:48:16;;;;;;;;;;;4.40;99.90;;;;;;5065313;28;20324;-77
2024/01/13 10:50:43;;;;;;;;;;;4.40;99.90;;;;;;5035441;28;19924;-74
2024/01/13 10:53:16;;;;;;;;;;;4.40;99.90;;;;;;5047042;28;19928;-76
2024/01/13 10:55:42;;;;;;;;;;;4.40;99.90;;;;;;5074365;28;19974;-77
2024/01/13 10:58:09;;;;;;;;;;;4.40;99.90;;;;;;5045613;28;19956;-75
2024/01/13 11:00:35;;;;;;;;;;;4.50;99.90;;;;;;5064941;28;19959;-75
2024/01/13 11:03:01;;;;;;;;;;;4.40;99.90;;;;;;5044968;28;19970;-76
2024/01/13 11:05:26;;;;;;;;;;;4.40;99.90;;;;;;5045015;28;19924;-76
2024/01/13 11:07:52;;;;;;;;;;;4.50;99.90;;;;;;5068904;28;20415;-77
2024/01/13 11:10:29;;;;;;;;;;;4.50;99.90;;;;;;5059127;28;20043;-79
2024/01/13 11:13:01;;;;;;;;;;;4.50;99.90;;;;;;5057762;28;19932;-78
2024/01/13 11:15:31;;;;;;;;;;;4.50;99.90;;;;;;5065596;28;20295;-74
2024/01/13 11:17:59;;;;;;;;;;;4.50;99.90;;;;;;5050158;28;19963;-74
2024/01/13 11:20:25;;;;;;;;;;;5.40;99.90;;;;;;5036377;28;19916;-81
2024/01/13 11:22:58;;;;;;;;;;;4.50;99.90;;;;;;5035335;28;20497;-74
2024/01/13 11:25:28;;;;;;;;;;;4.50;99.90;;;;;;5036546;28;19999;-76
2024/01/13 11:28:00;;;;;;;;;;;4.60;99.90;;;;;;5041579;28;20346;-73
2024/01/13 11:30:29;;;;;;;;;;;4.60;99.90;;;;;;5049434;28;19921;-74
2024/01/13 11:32:55;;;;;;;;;;;4.60;99.90;;;;;;5036141;28;20035;-76
2024/01/13 11:35:20;;;;;;;;;;;4.70;99.90;;;;;;5044086;28;19999;-74
2024/01/13 11:37:52;;;;;;;;;;;4.80;99.90;;;;;;5048323;28;19921;-76
2024/01/13 11:40:17;;;;;;;;;;;4.70;99.90;;;;;;5061839;28;19920;-73
2024/01/13 11:42:43;;;;;;;;;;;4.70;99.90;;;;;;5050194;28;19927;-74
2024/01/13 11:45:08;;;;;;;;;;;4.80;99.90;;;;;;5049889;28;20054;-73
2024/01/13 11:47:35;;;;;;;;;;;4.80;99.90;;;;;;5049345;28;20017;-73
2024/01/13 11:50:00;;;;;;;;;;;4.80;99.90;;;;;;5051250;28;19920;-74
2024/01/13 11:52:30;;;;;;;;;;;4.90;99.90;;;;;;5050677;28;19958;-74
2024/01/13 11:54:56;;;;;;;;;;;4.80;99.90;;;;;;5045944;28;19921;-75
2024/01/13 11:57:21;;;;;;;;;;;4.80;99.90;;;;;;5049661;28;19924;-74
2024/01/13 11:59:47;;;;;;;;;;;4.90;99.90;;;;;;5066989;28;19920;-74
2024/01/13 12:02:13;;;;;;;;;;;4.80;99.90;;;;;;5049494;28;20355;-75
2024/01/13 12:04:41;;;;;;;;;;;4.90;99.90;;;;;;5070580;28;19920;-75
2024/01/13 12:07:08;;;;;;;;;;;4.90;99.90;;;;;;5071434;28;19920;-74
2024/01/13 12:09:34;;;;;;;;;;;4.80;99.90;;;;;;5052520;28;20368;-74
2024/01/13 12:12:00;;;;;;;;;;;4.90;99.90;;;;;;5053678;28;19931;-74
2024/01/13 12:14:29;;;;;;;;;;;4.90;99.90;;;;;;5053757;28;19986;-73
2024/01/13 12:16:55;;;;;;;;;;;4.90;99.90;;;;;;5053478;28;20003;-73
2024/01/13 12:19:22;;;;;;;;;;;4.90;99.90;;;;;;5036628;28;20284;-73
2024/01/13 12:21:48;;;;;;;;;;;4.90;99.90;;;;;;5052477;28;20332;-73
2024/01/13 12:24:14;;;;;;;;;;;4.90;99.90;;;;;;5072372;28;20002;-73
2024/01/13 12:26:39;;;;;;;;;;;4.90;99.90;;;;;;5055285;28;19924;-74
2024/01/13 12:29:05;;;;;;;;;;;5.00;99.90;;;;;;5043586;28;19920;-74
2024/01/13 12:31:31;;;;;;;;;;;5.00;99.90;;;;;;5050977;28;19920;-74
2024/01/13 12:34:07;;;;;;;;;;;5.00;99.90;;;;;;5050108;28;19994;-74
2024/01/13 12:36:33;;;;;;;;;;;5.00;99.90;;;;;;5054847;28;20289;-74
2024/01/13 12:38:58;;;;;;;;;;;5.00;99.90;;;;;;5049848;28;19921;-74
2024/01/13 12:41:24;;;;;;;;;;;5.10;99.90;;;;;;5034844;28;19963;-74
2024/01/13 12:43:49;;;;;;;;;;;5.10;99.90;;;;;;5043090;28;20309;-74
2024/01/13 12:46:16;;;;;;;;;;;5.30;99.90;;;;;;5060961;28;19920;-74
2024/01/13 12:48:41;;;;;;;;;;;5.20;99.90;;;;;;5044419;28;20241;-74
2024/01/13 12:51:08;;;;;;;;;;;5.20;99.90;;;;;;5048691;28;19974;-73
2024/01/13 12:53:33;;;;;;;;;;;5.20;99.90;;;;;;5053309;28;20019;-74
2024/01/13 12:55:59;;;;;;;;;;;5.20;99.90;;;;;;5070470;28;20018;-74
2024/01/13 12:58:24;;;;;;;;;;;5.30;99.90;;;;;;5052962;28;20023;-74
2024/01/13 13:00:50;;;;;;;;;;;5.40;99.90;;;;;;5052472;28;19928;-74
2024/01/13 13:03:15;;;;;;;;;;;5.50;99.90;;;;;;5049061;28;19948;-74
2024/01/13 13:05:41;;;;;;;;;;;5.50;99.90;;;;;;5033997;28;19978;-74
2024/01/13 13:08:06;;;;;;;;;;;5.60;99.90;;;;;;5042203;28;20446;-74
2024/01/13 13:10:32;;;;;;;;;;;5.60;99.90;;;;;;5045083;28;19921;-74
2024/01/13 13:13:04;;;;;;;;;;;5.70;99.90;;;;;;5047366;28;20299;-74
2024/01/13 13:15:30;;;;;;;;;;;5.80;99.90;;;;;;5042678;28;19924;-73
2024/01/13 13:17:55;;;;;;;;;;;5.90;99.90;;;;;;5047883;28;20442;-74
2024/01/13 13:20:21;;;;;;;;;;;6.00;99.90;;;;;;5049592;28;19964;-74
2024/01/13 13:22:46;;;;;;;;;;;6.20;99.90;;;;;;5048186;28;20316;-73
2024/01/13 13:25:12;;;;;;;;;;;6.30;99.90;;;;;;5044790;28;19921;-74
2024/01/13 13:27:38;;;;;;;;;;;6.40;99.90;;;;;;5048454;28;19979;-73
2024/01/13 13:30:05;;;;;;;;;;;6.50;99.90;;;;;;5047420;28;20072;-74
2024/01/13 13:32:30;;;;;;;;;;;6.60;99.90;;;;;;5046753;28;20342;-73
2024/01/13 13:34:56;;;;;;;;;;;7.00;99.90;;;;;;5035570;28;19972;-73
2024/01/13 13:37:22;;;;;;;;;;;6.60;99.90;;;;;;5041465;28;20007;-73
2024/01/13 13:39:47;;;;;;;;;;;6.60;99.90;;;;;;5049238;28;19920;-73
2024/01/13 13:42:14;;;;;;;;;;;7.30;99.90;;;;;;5049363;28;19916;-73
2024/01/13 13:44:40;;;;;;;;;;;6.70;99.90;;;;;;5049319;28;19925;-73
2024/01/13 13:47:05;;;;;;;;;;;6.80;99.90;;;;;;5045116;28;20300;-73
2024/01/13 13:49:31;;;;;;;;;;;6.80;99.90;;;;;;5051281;28;20136;-72
2024/01/13 13:51:57;;;;;;;;;;;6.80;99.90;;;;;;5048750;28;19920;-72
2024/01/13 13:54:23;;;;;;;;;;;7.20;99.90;;;;;;5049213;28;19928;-73
2024/01/13 13:56:49;;;;;;;;;;;6.80;99.90;;;;;;5049748;28;19935;-73
2024/01/13 13:59:15;;;;;;;;;;;6.80;99.90;;;;;;5048883;28;19920;-73
2024/01/13 14:01:41;;;;;;;;;;;6.90;99.90;;;;;;5038176;28;20426;-72
2024/01/13 14:04:08;;;;;;;;;;;6.70;99.90;;;;;;5030121;28;20011;-73
2024/01/13 14:06:34;;;;;;;;;;;6.70;99.90;;;;;;5051332;28;19928;-73
2024/01/13 14:09:00;;;;;;;;;;;6.50;99.90;;;;;;5050384;28;20307;-73
2024/01/13 14:11:25;;;;;;;;;;;6.50;99.90;;;;;;5049803;28;19921;-73
2024/01/13 14:13:51;;;;;;;;;;;6.40;99.90;;;;;;5048513;28;19921;-73
2024/01/13 14:16:16;;;;;;;;;;;6.70;99.90;;;;;;5066231;28;19921;-72
2024/01/13 14:18:47;;;;;;;;;;;6.30;99.90;;;;;;5050930;28;19920;-74
2024/01/13 14:21:13;;;;;;;;;;;6.30;99.90;;;;;;5033213;28;19917;-74
2024/01/13 14:23:39;;;;;;;;;;;6.30;99.90;;;;;;5039503;28;19932;-73